METAR AND TAF INFORMATION
METAR FOR LCEN
ADDS - METARS form results

(2201 UTC 18 December 2018)
Data provider http://aviationweather.gov/metar/data/
 
METAR text: LCEN 182150Z 00000KT 6000 SHRA FEW025CB SCT030 BKN080 13/12 Q1016 NOSIG
Conditions at: LCEN (ERCAN , CY) observed 2150 UTC 18 December 2018
Temperature: 13.0°C (55°F)
Dewpoint: 12.0°C (54°F) [RH = 94%]
Pressure (altimeter): 30.00 inches Hg (1016.0 mb)
Winds: calm
Visibility: 4 miles ( 6 km)
Ceiling: 8000 feet AGL
Clouds: few clouds at 2500 feet AGL
scattered clouds at 3000 feet AGL
broken clouds at 8000 feet AGL
Weather: SHRA  (rain showers)

METAR text: LCEN 182135Z 31003KT 270V330 8000 -SHRA FEW025CB SCT030 BKN080 13/12 Q1016 RMK RWY11 31003KT
Conditions at: LCEN (ERCAN , CY) observed 2135 UTC 18 December 2018
Temperature: 13.0°C (55°F)
Dewpoint: 12.0°C (54°F) [RH = 94%]
Pressure (altimeter): 30.00 inches Hg (1016.0 mb)
Winds: from the NW (310 degrees) at 3 MPH (3 knots; 1.5 m/s)
Visibility: 5 miles ( 8 km)
Ceiling: 8000 feet AGL
Clouds: few clouds at 2500 feet AGL
scattered clouds at 3000 feet AGL
broken clouds at 8000 feet AGL
Weather: -SHRA  (light rain showers)

METAR text: LCEN 182120Z 25003KT 210V290 9999 FEW025CB SCT030 BKN080 13/12 Q1016 RETSRA NOSIG RMK RWY11 27004KT
Conditions at: LCEN (ERCAN , CY) observed 2120 UTC 18 December 2018
Temperature: 13.0°C (55°F)
Dewpoint: 12.0°C (54°F) [RH = 94%]
Pressure (altimeter): 30.00 inches Hg (1016.0 mb)
Winds: from the WSW (250 degrees) at 3 MPH (3 knots; 1.5 m/s)
Visibility: 6 or more miles (10+ km)
Ceiling: 8000 feet AGL
Clouds: few clouds at 2500 feet AGL
scattered clouds at 3000 feet AGL
broken clouds at 8000 feet AGL
Weather: no significant weather observed at this time

Forecast for: LCEN (ERCAN , CY)
Text: TAF LCEN 181640Z 1818/1918 24015KT 9999 SCT025 BKN100
Forecast period: 1800 UTC 18 December 2018 to 1800 UTC 19 December 2018
Forecast type: FROM: standard forecast or significant change
Winds: from the WSW (240 degrees) at 17 MPH (15 knots; 7.7 m/s)
Visibility: 6 or more miles 10+ km)
Ceiling: 10000 feet AGL
Clouds: scattered clouds at 2500 feet AGL
broken clouds at 10000 feet AGL
Weather: no significant weather forecast for this period
Text: TEMPO 1818/1822 4000 SHRA FEW020CB
Forecast period: 1800 to 2200 UTC 18 December 2018
Forecast type: TEMPORARY: The following changes expected for less than half the time period
Visibility: 2.49 miles (4.01 km)
Ceiling: at least 12,000 feet AGL
Clouds: few clouds at 2000 feet AGL
Weather: SHRA  (rain showers)
Text: PROB40
Forecast period: 0000 to 0400 UTC 19 December 2018
Forecast type: TEMPORARY: The following changes expected for less than half the time period
Winds: from the WSW (240 degrees) at 17 MPH (15 knots; 7.7 m/s)
gusting to 29 MPH (25 knots; 12.9 m/s)
Visibility: 1.24 miles (2.00 km)
Ceiling: 2500 feet AGL
Clouds: scattered clouds at 2000 feet AGL
broken clouds at 2500 feet AGL
broken clouds at 8000 feet AGL
Weather: TSRA  (rain associated with thunderstorm(s))

 AIRPORT MAP

 RUNWAY INFORMATION
Runway 11 Runway length 9039 ft Runway width 148 ft
Runway elevation 402 ft Runway displaced threshold 0 ft Runway heading 107
Runway 29 Runway length 9039 ft Runway width 148 ft
Runway elevation 402 ft Runway displaced threshold 0 ft Runway heading 287

 AIRPORT FREQUENCIES
Type Enroute Name Ercan Rada Frequency 126.7 MHZ
Type Ercan Appr Name Frequency 126.9 MHZ
Type Ercan Atis Name Frequency 118.35 MHZ
Type Ercan Towe Name Frequency 120.2 MHZ

 AIRPORT NEAR NAVIGATION AIDS



Copyright © 2011 - 2018 BirgenAir Virtual Airlines. All rights reserved. Developed by Goktug Unver